Time;durP1;ratioP1;P1;durP2;ratioP2;P2;SDS_P1;SDS_P2;PMS_P1;PMS_P2;Temp;Humidity;BMP_temperature;BMP_pressure;BME280_temperature;BME280_humidity;BME280_pressure;Samples;Min_cycle;Max_cycle;Signal;HPM_P1;HPM_P2
2023/09/23 00:00:24;;;;;;;3.42;3.00;;;;;;;10.56;100.00;100654.22;5032422;28;20018;-79
2023/09/23 00:02:49;;;;;;;3.45;3.10;;;;;;;10.54;100.00;100650.78;5033705;28;20041;-79
2023/09/23 00:05:16;;;;;;;3.97;3.30;;;;;;;10.52;100.00;100663.78;5035925;28;20462;-79
2023/09/23 00:07:42;;;;;;;3.00;2.70;;;;;;;10.47;100.00;100661.28;5036758;28;20048;-80
2023/09/23 00:10:09;;;;;;;3.80;3.08;;;;;;;10.49;100.00;100661.25;5036921;28;20028;-79
2023/09/23 00:12:40;;;;;;;3.25;2.90;;;;;;;10.46;100.00;100656.13;5035831;28;20420;-79
2023/09/23 00:15:07;;;;;;;3.30;2.97;;;;;;;10.46;100.00;100658.72;5036448;28;20025;-80
2023/09/23 00:17:32;;;;;;;;;;;;;;;10.48;100.00;100667.31;5037029;28;20108;-79
2023/09/23 00:19:57;;;;;;;2.87;2.63;;;;;;;10.36;100.00;100656.22;5035570;28;19964;-80
2023/09/23 00:22:23;;;;;;;3.63;3.00;;;;;;;10.43;100.00;100663.97;5036030;28;20033;-79
2023/09/23 00:24:50;;;;;;;3.40;3.00;;;;;;;10.41;100.00;100656.22;5036727;28;20035;-80
2023/09/23 00:27:17;;;;;;;3.70;3.20;;;;;;;10.37;100.00;100657.09;5022171;28;20026;-79
2023/09/23 00:29:45;;;;;;;3.88;3.40;;;;;;;10.37;100.00;100670.06;5016337;28;20084;-79
2023/09/23 00:32:12;;;;;;;3.60;3.15;;;;;;;10.34;100.00;100668.41;5015491;28;20022;-79
2023/09/23 00:34:39;;;;;;;4.72;3.63;;;;;;;10.32;100.00;100667.56;5016451;28;20486;-79
2023/09/23 00:37:04;;;;;;;;;;;;;;;10.34;100.00;100683.09;5016507;28;20471;-79
2023/09/23 00:39:30;;;;;;;4.13;3.27;;;;;;;10.33;100.00;100683.97;5049899;28;19962;-79
2023/09/23 00:41:55;;;;;;;4.07;3.23;;;;;;;10.33;100.00;100684.84;5056322;28;20050;-79
2023/09/23 00:44:20;;;;;;;3.30;3.00;;;;;;;10.27;100.00;100674.56;5055762;28;20027;-79
2023/09/23 00:46:46;;;;;;;3.07;2.77;;;;;;;10.30;100.00;100686.63;5054925;28;20524;-80
2023/09/23 00:49:13;;;;;;;3.60;3.03;;;;;;;10.27;100.00;100690.13;5055732;28;20025;-80
2023/09/23 00:51:39;;;;;;;4.18;3.10;;;;;;;10.25;100.00;100691.03;5055992;28;20033;-80
2023/09/23 00:54:52;;;;;;;3.60;2.95;;;;;;;10.30;100.00;100692.66;5001617;28;20126;-80
2023/09/23 00:58:14;;;;;;;3.30;2.53;;;;;;;10.30;100.00;100684.88;5055360;28;20136;-79
2023/09/23 01:00:43;;;;;;;3.00;2.70;;;;;;;10.31;100.00;100686.59;5055015;28;20025;-79
2023/09/23 01:03:12;;;;;;;3.00;2.70;;;;;;;10.18;100.00;100662.63;5055332;28;20115;-79
2023/09/23 01:05:39;;;;;;;2.80;2.50;;;;;;;10.33;100.00;100690.03;5055000;28;20100;-79
2023/09/23 01:08:20;;;;;;;2.70;2.50;;;;;;;10.33;100.00;100695.22;5054750;28;20025;-79
2023/09/23 01:10:48;;;;;;;3.10;2.40;;;;;;;10.28;100.00;100688.41;5055296;28;20458;-79
2023/09/23 01:13:14;;;;;;;3.55;2.72;;;;;;;10.27;100.00;100690.13;5054982;28;20032;-79
2023/09/23 01:15:43;;;;;;;3.55;2.95;;;;;;;10.24;100.00;100694.50;5369132;22;20072;-79
2023/09/23 01:18:08;;;;;;;3.20;2.72;;;;;;;10.23;100.00;100696.25;5075186;28;20032;-79
2023/09/23 01:20:35;;;;;;;3.80;3.03;;;;;;;10.26;100.00;100701.38;5075222;28;20485;-80
2023/09/23 01:23:12;;;;;;;4.97;3.42;;;;;;;10.18;100.00;100687.69;5074298;28;20032;-80
2023/09/23 01:25:41;;;;;;;4.00;2.95;;;;;;;10.17;100.00;100684.25;5075389;28;20109;-80
2023/09/23 01:28:11;;;;;;;5.47;3.53;;;;;;;10.17;100.00;100696.34;5074894;28;20059;-80
2023/09/23 01:30:37;;;;;;;5.60;3.05;;;;;;;10.24;100.00;100708.34;5074444;28;20031;-79
2023/09/23 01:33:07;;;;;;;3.37;2.70;;;;;;;10.31;100.00;100709.94;5074808;28;20107;-79
2023/09/23 01:35:38;;;;;;;3.63;2.90;;;;;;;10.24;100.00;100697.09;5070851;28;20035;-79
2023/09/23 01:38:05;;;;;;;5.50;3.30;;;;;;;10.32;100.00;100703.88;5075547;28;20036;-79
2023/09/23 01:40:48;;;;;;;8.13;4.60;;;;;;;10.23;100.00;100695.38;5075069;28;20388;-79
2023/09/23 01:43:14;;;;;;;7.88;3.97;;;;;;;10.24;100.00;100700.56;5073639;28;20485;-79
2023/09/23 01:45:39;;;;;;;6.17;3.60;;;;;;;10.27;100.00;100699.66;5074743;28;20048;-79
2023/09/23 01:48:05;;;;;;;4.53;3.23;;;;;;;10.40;100.00;100728.88;5074619;28;20465;-80
2023/09/23 01:50:33;;;;;;;4.30;3.00;;;;;;;10.41;100.00;100728.84;5073546;28;20362;-79
2023/09/23 01:53:01;;;;;;;3.40;2.70;;;;;;;10.42;100.00;100719.31;5074944;28;20024;-79
2023/09/23 01:55:27;;;;;;;3.60;2.83;;;;;;;10.44;100.00;100728.78;5074630;28;20052;-80
2023/09/23 01:57:53;;;;;;;2.95;2.47;;;;;;;10.43;100.00;100721.03;5074396;28;20056;-80
2023/09/23 02:00:21;;;;;;;4.10;2.87;;;;;;;10.46;100.00;100724.44;5074068;28;20484;-79
2023/09/23 02:02:48;;;;;;;4.93;3.00;;;;;;;10.39;100.00;100720.25;5073924;28;20037;-80
2023/09/23 02:05:15;;;;;;;6.68;3.10;;;;;;;10.35;100.00;100710.75;5073665;28;20373;-79
2023/09/23 02:07:49;;;;;;;4.82;3.30;;;;;;;10.43;100.00;100728.81;5074536;28;20354;-80
2023/09/23 02:10:17;;;;;;;3.88;2.75;;;;;;;10.31;100.00;100717.72;5074331;28;20029;-80
2023/09/23 02:12:43;;;;;;;3.78;2.85;;;;;;;10.34;100.00;100728.06;5073497;28;20461;-80
2023/09/23 02:15:10;;;;;;;3.27;2.60;;;;;;;10.38;100.00;100741.00;5073491;28;20060;-80
2023/09/23 02:17:36;;;;;;;;;;;;;;;10.36;100.00;100752.22;5088722;28;20131;-80
2023/09/23 02:22:48;;;;;;;3.50;2.67;;;;;;;10.24;100.00;100747.25;5094518;28;20507;-80
2023/09/23 02:25:14;;;;;;;3.00;2.50;;;;;;;10.27;100.00;100754.13;5093157;28;20024;-80
2023/09/23 02:27:46;;;;;;;2.63;2.10;;;;;;;10.27;100.00;100751.53;5093551;28;20460;-80
2023/09/23 02:30:15;;;;;;;3.67;2.40;;;;;;;10.26;100.00;100755.00;5093960;28;20540;-79
2023/09/23 02:32:45;;;;;;;2.10;1.90;;;;;;;10.25;100.00;100758.47;5093521;28;20028;-80
2023/09/23 02:35:15;;;;;;;2.35;1.90;;;;;;;10.23;100.00;100755.03;5093688;28;20532;-80
2023/09/23 02:37:48;;;;;;;3.20;2.10;;;;;;;10.19;100.00;100759.41;5094550;28;20427;-80
2023/09/23 02:40:17;;;;;;;2.88;2.33;;;;;;;10.22;100.00;100774.06;5093269;28;20439;-80
2023/09/23 02:42:44;;;;;;;4.57;2.40;;;;;;;10.15;100.00;100766.38;5094223;28;20024;-80
2023/09/23 02:45:17;;;;;;;2.58;2.13;;;;;;;10.18;100.00;100773.25;5093463;28;20064;-80
2023/09/23 02:47:43;;;;;;;2.15;1.92;;;;;;;10.17;100.00;100781.91;5093464;28;20028;-80
2023/09/23 02:50:10;;;;;;;2.27;1.97;;;;;;;10.13;100.00;100788.03;5093571;28;20369;-79
2023/09/23 02:52:36;;;;;;;;;;;;;;;10.14;100.00;100787.13;5094007;28;20350;-80
2023/09/23 02:55:33;;;;;;;2.40;1.80;;;;;;;10.12;100.00;100789.78;5092720;28;20345;-80
2023/09/23 03:00:33;;;;;;;3.70;2.03;;;;;;;10.09;100.00;100788.97;5181236;22;19925;-79
2023/09/23 03:02:59;;;;;;;3.50;2.10;;;;;;;10.05;100.00;100791.59;5053035;28;20031;-79
2023/09/23 03:05:28;;;;;;;2.42;1.90;;;;;;;10.06;100.00;100789.88;5052971;28;20094;-79
2023/09/23 03:07:57;;;;;;;2.42;1.83;;;;;;;10.07;100.00;100793.31;5052580;28;20439;-80
2023/09/23 03:10:31;;;;;;;1.55;1.45;;;;;;;10.06;100.00;100789.88;5052769;28;20516;-79
2023/09/23 03:13:06;;;;;;;1.95;1.70;;;;;;;10.04;100.00;100789.88;5034625;28;20436;-79
2023/09/23 03:15:50;;;;;;;1.70;1.60;;;;;;;10.02;100.00;100791.63;5052471;28;20028;-79
2023/09/23 03:18:27;;;;;;;2.42;1.92;;;;;;;10.01;100.00;100792.53;5052974;28;20112;-79
2023/09/23 03:20:57;;;;;;;2.22;1.90;;;;;;;9.94;100.00;100784.84;5052462;28;20381;-79
2023/09/23 03:23:26;;;;;;;2.10;1.80;;;;;;;9.96;100.00;100801.25;5052893;28;20394;-80
2023/09/23 03:25:52;;;;;;;1.83;1.73;;;;;;;9.94;100.00;100809.03;5053077;28;20106;-80
2023/09/23 03:28:18;;;;;;;3.07;1.90;;;;;;;9.91;100.00;100800.44;5052167;28;20481;-79
2023/09/23 03:30:47;;;;;;;2.67;2.00;;;;;;;9.95;100.00;100815.94;5052881;28;20025;-80
2023/09/23 03:33:14;;;;;;;1.70;1.60;;;;;;;9.92;100.00;100810.78;5052825;28;20564;-80
2023/09/23 03:35:39;;;;;;;3.75;2.20;;;;;;;9.97;100.00;100818.50;5052742;28;20144;-79
2023/09/23 03:38:05;;;;;;;2.13;1.80;;;;;;;9.95;100.00;100812.50;5051470;28;20548;-79
2023/09/23 03:40:31;;;;;;;1.33;1.27;;;;;;;9.97;100.00;100819.38;5052040;28;20041;-79
2023/09/23 03:43:01;;;;;;;2.65;1.48;;;;;;;10.00;100.00;100819.34;5052315;28;20127;-79
2023/09/23 03:45:34;;;;;;;1.60;1.50;;;;;;;9.99;100.00;100817.63;5052582;28;20058;-79
2023/09/23 03:47:59;;;;;;;2.45;1.90;;;;;;;9.99;100.00;100817.63;5052643;28;20036;-79
2023/09/23 03:50:25;;;;;;;2.23;1.80;;;;;;;9.98;100.00;100822.81;5051561;28;20017;-80
2023/09/23 03:52:50;;;;;;;2.00;1.80;;;;;;;9.94;100.00;100819.41;5052434;28;20494;-79
2023/09/23 03:55:16;;;;;;;2.63;1.80;;;;;;;9.92;100.00;100826.31;5052345;28;20040;-79
2023/09/23 03:57:42;;;;;;;1.40;1.30;;;;;;;9.94;100.00;100834.94;5051962;28;20048;-79
2023/09/23 04:00:16;;;;;;;1.60;1.50;;;;;;;9.95;100.00;100838.41;5052215;28;20514;-79
2023/09/23 04:02:42;;;;;;;2.25;1.60;;;;;;;9.92;100.00;100826.31;5052707;28;20033;-79
2023/09/23 04:05:07;;;;;;;1.58;1.48;;;;;;;9.95;100.00;100831.47;5051356;28;20025;-79
2023/09/23 04:07:33;;;;;;;1.70;1.43;;;;;;;9.92;100.00;100828.06;5052159;28;20082;-79
2023/09/23 04:09:58;;;;;;;2.57;1.80;;;;;;;9.91;100.00;100828.94;5052189;28;20036;-79
2023/09/23 04:12:23;;;;;;;1.83;1.73;;;;;;;9.92;100.00;100831.50;5051318;28;20383;-79
2023/09/23 04:14:49;;;;;;;4.33;2.10;;;;;;;9.88;100.00;100829.84;5052418;28;20029;-79
2023/09/23 04:17:15;;;;;;;2.53;1.92;;;;;;;9.89;100.00;100832.41;5051401;28;20032;-79
2023/09/23 04:19:40;;;;;;;2.10;1.83;;;;;;;9.93;100.00;100845.34;5052508;28;20021;-79
2023/09/23 04:22:05;;;;;;;2.20;1.80;;;;;;;9.92;100.00;100844.47;5051992;28;20032;-79
2023/09/23 04:24:31;;;;;;;2.43;1.80;;;;;;;9.95;100.00;100848.78;5051387;28;20115;-79
2023/09/23 04:26:57;;;;;;;2.63;1.50;;;;;;;9.94;100.00;100847.91;5052208;28;20014;-79
2023/09/23 04:29:25;;;;;;;2.23;1.80;;;;;;;9.97;100.00;100852.19;5052165;28;20024;-80
2023/09/23 04:31:51;;;;;;;2.30;2.00;;;;;;;9.98;100.00;100861.69;5051762;28;20357;-79
2023/09/23 04:34:17;;;;;;;2.53;1.80;;;;;;;10.00;100.00;100871.19;5051682;28;20068;-79
2023/09/23 04:36:43;;;;;;;2.20;1.90;;;;;;;9.99;100.00;100876.38;5051996;28;20041;-81
2023/09/23 04:39:08;;;;;;;1.77;1.67;;;;;;;9.93;100.00;100868.69;5051250;28;20086;-79
2023/09/23 04:41:34;;;;;;;2.53;1.87;;;;;;;9.94;100.00;100870.41;5052247;28;20025;-80
2023/09/23 04:43:59;;;;;;;3.20;2.23;;;;;;;9.90;100.00;100869.59;5052425;28;20100;-80
2023/09/23 04:46:24;;;;;;;3.13;2.30;;;;;;;9.91;100.00;100881.66;5051191;28;20044;-79
2023/09/23 04:48:50;;;;;;;2.67;1.80;;;;;;;9.90;100.00;100887.72;5053269;28;20523;-79
2023/09/23 04:51:17;;;;;;;2.90;2.00;;;;;;;9.88;100.00;100882.53;5055568;28;20024;-80
2023/09/23 04:53:42;;;;;;;3.75;2.42;;;;;;;9.88;100.00;100884.28;5055377;28;20033;-79
2023/09/23 04:56:12;;;;;;;4.67;2.30;;;;;;;9.88;100.00;100889.47;5055471;28;20360;-79
2023/09/23 04:58:37;;;;;;;2.65;1.90;;;;;;;9.87;100.00;100886.00;5055371;28;20055;-80
2023/09/23 05:01:03;;;;;;;1.80;1.70;;;;;;;9.87;100.00;100896.38;5054420;28;20033;-79
2023/09/23 05:03:29;;;;;;;1.73;1.63;;;;;;;9.83;100.00;100893.84;5055768;28;20032;-80
2023/09/23 05:05:55;;;;;;;2.13;1.50;;;;;;;9.85;100.00;100900.72;5055388;28;20432;-79
2023/09/23 05:08:20;;;;;;;2.20;1.87;;;;;;;9.83;100.00;100905.09;5054294;28;20493;-79
2023/09/23 05:10:45;;;;;;;2.60;1.93;;;;;;;9.74;100.00;100893.09;5055491;28;20027;-79
2023/09/23 05:13:11;;;;;;;2.60;2.00;;;;;;;9.82;100.00;100910.28;5055460;28;20025;-79
2023/09/23 05:15:37;;;;;;;3.33;2.23;;;;;;;9.82;100.00;100918.03;5078394;22;20128;-79
2023/09/23 05:18:03;;;;;;;3.27;2.10;;;;;;;9.77;100.00;100919.84;5054901;28;20025;-79
2023/09/23 05:20:28;;;;;;;3.50;1.90;;;;;;;9.82;100.00;100936.19;5054528;28;20047;-79
2023/09/23 05:22:55;;;;;;;2.20;2.00;;;;;;;9.73;100.00;100930.25;5055682;28;20027;-80
2023/09/23 05:25:24;;;;;;;2.78;1.80;;;;;;;9.81;100.00;100937.94;5054779;28;20108;-79
2023/09/23 05:27:59;;;;;;;2.72;2.10;;;;;;;9.79;100.00;100944.88;5054421;28;20017;-79
2023/09/23 05:37:12;;;;;;;4.22;2.42;;;;;;;9.66;100.00;100938.97;5034991;28;20040;-79
2023/09/23 05:39:44;;;;;;;3.13;2.25;;;;;;;9.78;100.00;100963.88;5035281;28;20029;-80
2023/09/23 05:42:10;;;;;;;4.72;2.60;;;;;;;9.71;100.00;100957.91;5034126;28;20371;-79
2023/09/23 05:44:35;;;;;;;4.50;2.47;;;;;;;9.74;100.00;100962.19;5035016;28;20020;-79
2023/09/23 05:47:01;;;;;;;3.80;2.60;;;;;;;9.76;100.00;100969.97;5046805;28;20036;-79
2023/09/23 05:49:26;;;;;;;2.90;2.27;;;;;;;9.73;100.00;100968.28;5053544;28;20058;-79
2023/09/23 05:51:54;;;;;;;2.60;2.23;;;;;;;9.74;100.00;100978.59;5055056;28;20025;-79
2023/09/23 05:54:20;;;;;;;2.45;1.92;;;;;;;9.73;100.00;100973.44;5054031;28;20062;-79
2023/09/23 05:56:45;;;;;;;2.30;2.10;;;;;;;9.74;100.00;100978.59;5043644;28;20033;-78
2023/09/23 05:59:15;;;;;;;2.43;1.90;;;;;;;9.79;100.00;100990.69;5034051;28;20022;-78
2023/09/23 06:01:41;;;;;;;2.20;2.00;;;;;;;9.81;100.00;100989.78;5033886;28;20087;-78
2023/09/23 06:04:09;;;;;;;2.07;1.73;;;;;;;9.75;100.00;100982.03;5033530;28;20531;-78
2023/09/23 06:06:37;;;;;;;2.67;1.88;;;;;;;9.87;100.00;101001.81;5034671;28;20052;-78
2023/09/23 06:09:03;;;;;;;2.83;2.25;;;;;;;9.87;100.00;101000.06;5034505;28;20025;-84
2023/09/23 06:11:29;;;;;;;4.10;2.55;;;;;;;9.80;100.00;100994.97;5034471;28;20470;-80
2023/09/23 06:13:54;;;;;;;4.80;2.87;;;;;;;9.91;100.00;101013.00;5040565;28;20115;-81
2023/09/23 06:16:19;;;;;;;6.23;2.80;;;;;;;9.90;100.00;101017.34;5037315;28;20087;-80
2023/09/23 06:18:45;;;;;;;3.57;2.50;;;;;;;9.91;100.00;101025.97;5033638;28;20100;-81
2023/09/23 06:21:10;;;;;;;2.80;2.40;;;;;;;9.96;100.00;101039.78;5034028;28;20386;-80
2023/09/23 06:26:42;;;;;;;4.30;2.83;;;;;;;9.98;100.00;101038.00;5026995;28;20128;-78
2023/09/23 06:29:16;;;;;;;3.30;2.38;;;;;;;10.08;100.00;101043.97;5033802;28;20163;-79
2023/09/23 06:31:41;;;;;;;4.38;2.28;;;;;;;10.08;100.00;101039.63;5033587;28;20092;-79
2023/09/23 06:34:07;;;;;;;2.77;2.27;;;;;;;10.20;100.00;101047.28;5033924;28;20562;-81
2023/09/23 06:36:33;;;;;;;4.00;2.27;;;;;;;10.31;100.00;101048.91;5034163;28;20425;-81
2023/09/23 06:38:59;;;;;;;2.72;2.40;;;;;;;10.73;100.00;101064.03;5033171;28;20025;-81
2023/09/23 06:41:37;;;;;;;3.80;2.70;;;;;;;11.20;100.00;101052.16;5032717;28;20034;-80
2023/09/23 06:44:27;;;;;;;6.10;2.90;;;;;;;12.04;100.00;101069.06;5033872;28;20029;-82
2023/09/23 06:46:56;;;;;;;4.05;2.50;;;;;;;13.21;100.00;101051.94;5033028;28;20045;-82
2023/09/23 06:49:30;;;;;;;3.67;2.22;;;;;;;14.78;100.00;101069.69;5033528;28;20108;-78
2023/09/23 06:51:55;;;;;;;2.53;2.00;;;;;;;16.20;100.00;101086.13;5032945;28;20386;-80
2023/09/23 06:54:21;;;;;;;2.93;2.10;;;;;;;16.72;93.14;101089.53;5033472;28;20025;-80
2023/09/23 06:56:46;;;;;;;2.40;1.87;;;;;;;16.47;97.44;101075.53;5033691;28;20025;-82
2023/09/23 06:59:12;;;;;;;3.57;2.13;;;;;;;16.75;94.14;101071.06;5032436;28;20064;-82
2023/09/23 07:01:56;;;;;;;2.87;1.80;;;;;;;16.77;88.91;101080.59;5033208;28;20032;-84
2023/09/23 07:04:21;;;;;;;1.98;1.80;;;;;;;16.17;89.66;101086.22;5033376;28;20029;-80
2023/09/23 07:06:54;;;;;;;4.20;2.13;;;;;;;15.35;91.28;101083.66;5033545;28;20364;-83
2023/09/23 07:09:19;;;;;;;3.03;2.00;;;;;;;14.69;92.29;101091.72;5033349;28;20109;-81
2023/09/23 07:11:44;;;;;;;4.30;2.63;;;;;;;14.20;93.49;101099.09;5033462;28;20045;-81
2023/09/23 07:14:13;;;;;;;4.00;2.50;;;;;;;13.76;95.32;101109.78;5032043;28;20029;-81
2023/09/23 07:16:44;;;;;;;2.67;2.22;;;;;;;13.38;97.64;101109.75;5032515;28;20457;-81
2023/09/23 07:19:11;;;;;;;4.18;2.30;;;;;;;13.03;98.56;101100.97;5032831;28;20032;-81
2023/09/23 07:21:36;;;;;;;2.58;2.17;;;;;;;12.89;99.75;101126.44;5032652;28;20021;-81
2023/09/23 07:24:14;;;;;;;3.13;2.27;;;;;;;12.61;100.00;101108.78;5033029;28;20032;-81
2023/09/23 07:26:39;;;;;;;3.40;2.05;;;;;;;12.44;100.00;101112.53;5033244;28;20359;-81
2023/09/23 07:29:04;;;;;;;2.23;2.03;;;;;;;12.43;100.00;101131.66;5032025;28;20080;-81
2023/09/23 07:31:30;;;;;;;3.27;2.30;;;;;;;12.43;100.00;101149.03;5033057;28;20481;-81
2023/09/23 07:33:55;;;;;;;4.10;2.43;;;;;;;12.29;100.00;101131.91;5032598;28;20091;-82
2023/09/23 07:36:36;;;;;;;3.50;2.70;;;;;;;12.26;100.00;101133.72;5048788;28;20079;-81
2023/09/23 07:39:10;;;;;;;4.35;2.70;;;;;;;12.26;100.00;101128.50;5053133;28;20494;-82
2023/09/23 07:41:36;;;;;;;4.80;2.50;;;;;;;12.35;100.00;101154.38;5051920;28;20116;-81
2023/09/23 07:44:02;;;;;;;3.95;2.58;;;;;;;12.32;100.00;101154.41;5052988;28;20116;-77
2023/09/23 07:46:28;;;;;;;5.20;2.80;;;;;;;12.35;100.00;101159.56;5052776;28;20032;-81
2023/09/23 07:48:53;;;;;;;6.53;2.90;;;;;;;12.35;100.00;101162.19;5052116;28;20025;-82
2023/09/23 07:51:31;;;;;;;3.63;2.53;;;;;;;12.40;100.00;101164.69;5052194;28;20037;-82
2023/09/23 07:54:00;;;;;;;4.60;2.50;;;;;;;12.34;100.00;101150.88;5052816;28;20416;-82
2023/09/23 07:56:40;;;;;;;5.75;3.10;;;;;;;12.42;100.00;101155.97;5051348;28;20032;-81
2023/09/23 07:59:14;;;;;;;3.55;2.50;;;;;;;12.46;100.00;101147.22;5052577;28;20029;-82
2023/09/23 08:01:40;;;;;;;3.17;2.40;;;;;;;12.63;100.00;101172.94;5052333;28;20025;-81
2023/09/23 08:04:17;;;;;;;3.33;2.60;;;;;;;12.65;100.00;101171.19;5037325;28;20040;-81
2023/09/23 08:06:51;;;;;;;3.60;2.55;;;;;;;12.73;100.00;101177.97;5052291;28;20025;-81
2023/09/23 08:09:16;;;;;;;4.78;2.50;;;;;;;12.82;100.00;101186.47;5031784;28;20033;-80
2023/09/23 08:12:18;;;;;;;6.73;2.90;;;;;;;12.87;100.00;101193.34;5032465;28;20401;-81
2023/09/23 08:14:44;;;;;;;5.25;3.10;;;;;;;12.78;100.00;101186.53;5032649;28;20071;-80
2023/09/23 08:17:09;;;;;;;5.07;2.70;;;;;;;12.97;100.00;101213.09;5031087;28;20046;-80
2023/09/23 08:22:22;;;;;;;3.33;2.25;;;;;;;12.90;100.00;101194.13;5176345;22;20057;-80
2023/09/23 08:24:47;;;;;;;4.38;2.90;;;;;;;13.08;100.00;101208.53;5054134;28;20025;-80
2023/09/23 08:27:29;;;;;;;3.77;2.50;;;;;;;13.04;100.00;101193.00;5056171;28;20021;-80
2023/09/23 08:29:56;;;;;;;4.10;2.50;;;;;;;13.14;100.00;101202.34;5056195;28;20031;-81
2023/09/23 08:32:37;;;;;;;2.78;2.38;;;;;;;13.22;100.00;101210.00;5055321;28;20399;-80
2023/09/23 08:35:11;;;;;;;4.72;2.50;;;;;;;13.33;100.00;101205.44;5055537;28;20033;-80
2023/09/23 08:37:37;;;;;;;6.75;3.20;;;;;;;13.41;100.00;101213.13;5055047;28;20025;-80
2023/09/23 08:40:12;;;;;;;5.57;3.00;;;;;;;13.58;100.00;101229.25;5056068;28;20481;-80
2023/09/23 08:42:41;;;;;;;5.82;3.00;;;;;;;13.68;100.00;101237.75;5056278;28;20028;-80
2023/09/23 08:45:18;;;;;;;4.95;2.95;;;;;;;13.66;100.00;101223.88;5054428;28;20040;-80
2023/09/23 08:47:45;;;;;;;4.72;2.60;;;;;;;13.88;100.00;101250.38;5055758;28;20017;-80
2023/09/23 08:50:11;;;;;;;5.15;2.88;;;;;;;13.85;100.00;101233.91;5055840;28;20025;-80
2023/09/23 08:52:43;;;;;;;5.18;2.83;;;;;;;13.97;100.00;101254.50;5055203;28;20479;-80
2023/09/23 08:55:11;;;;;;;4.72;2.50;;;;;;;14.02;100.00;101247.44;5055427;28;20492;-81
2023/09/23 08:57:53;;;;;;;3.75;2.40;;;;;;;14.32;100.00;101265.00;5055891;28;20108;-80
2023/09/23 09:00:19;;;;;;;3.05;2.40;;;;;;;14.41;100.00;101270.00;5054630;28;20512;-80
2023/09/23 09:02:45;;;;;;;2.88;2.10;;;;;;;14.53;100.00;101261.00;5055815;28;20036;-78
2023/09/23 09:05:10;;;;;;;2.33;1.80;;;;;;;14.67;100.00;101279.00;5054677;28;20490;-79
2023/09/23 09:07:40;;;;;;;2.37;1.90;;;;;;;14.66;100.00;101278.06;5054624;28;20021;-79
2023/09/23 09:10:06;;;;;;;1.73;1.52;;;;;;;14.66;100.00;101270.25;5055430;28;20025;-80
2023/09/23 09:12:32;;;;;;;3.03;2.20;;;;;;;14.62;100.00;101279.06;5054785;28;20040;-79
2023/09/23 09:14:57;;;;;;;2.17;1.90;;;;;;;14.60;100.00;101280.00;5182466;22;20063;-79
2023/09/23 09:17:23;;;;;;;4.60;2.37;;;;;;;14.62;100.00;101294.75;5055011;28;20052;-79
2023/09/23 09:19:49;;;;;;;2.20;1.90;;;;;;;14.61;100.00;101292.16;5054687;28;20036;-79
2023/09/23 09:22:16;;;;;;;2.78;2.17;;;;;;;14.58;100.00;101295.72;5055255;28;20032;-79
2023/09/23 09:24:42;;;;;;;3.47;2.10;;;;;;;14.60;100.00;101304.38;5055548;28;20021;-79
2023/09/23 09:27:12;;;;;;;4.30;2.10;;;;;;;14.56;100.00;101304.50;5054000;28;20039;-79
2023/09/23 09:29:38;;;;;;;2.30;2.00;;;;;;;14.55;100.00;101298.38;5055181;28;20037;-79
2023/09/23 09:32:06;;;;;;;3.88;2.10;;;;;;;14.55;100.00;101311.44;5054699;28;20025;-79
2023/09/23 09:34:42;;;;;;;3.40;2.03;;;;;;;14.48;100.00;101308.13;5053018;28;20039;-79
2023/09/23 09:37:13;;;;;;;3.53;1.83;;;;;;;14.55;100.00;101315.81;5035231;28;20470;-79
2023/09/23 09:39:47;;;;;;;3.28;2.00;;;;;;;14.58;100.00;101319.22;5054953;28;20078;-79
2023/09/23 09:42:19;;;;;;;4.30;2.22;;;;;;;14.60;100.00;101316.56;5052716;28;20021;-79
2023/09/23 09:44:45;;;;;;;4.80;2.40;;;;;;;14.54;100.00;101328.00;5043948;28;20045;-79
2023/09/23 09:47:11;;;;;;;3.65;2.08;;;;;;;14.52;100.00;101335.06;5036207;28;20030;-79
2023/09/23 09:49:38;;;;;;;2.15;1.90;;;;;;;14.54;100.00;101321.94;5042366;28;20366;-80
2023/09/23 09:52:06;;;;;;;2.95;2.10;;;;;;;14.58;100.00;101329.66;5034320;28;20025;-79
2023/09/23 09:54:32;;;;;;;3.88;2.20;;;;;;;14.60;100.00;101327.88;5046416;28;20029;-79
2023/09/23 09:56:59;;;;;;;3.83;1.90;;;;;;;14.66;100.00;101330.31;5032507;28;20029;-80
2023/09/23 09:59:29;;;;;;;2.50;2.20;;;;;;;14.69;100.00;101336.41;5034128;28;20037;-80
2023/09/23 10:02:00;;;;;;;4.72;2.47;;;;;;;14.65;100.00;101332.97;5029740;28;20061;-80
2023/09/23 10:04:31;;;;;;;3.63;2.10;;;;;;;14.61;100.00;101339.16;5034057;28;20025;-81
2023/09/23 10:06:56;;;;;;;4.93;2.00;;;;;;;14.58;100.00;101337.50;5034480;28;20028;-80
2023/09/23 10:09:28;;;;;;;1.80;1.70;;;;;;;14.64;100.00;101342.56;5033632;28;20398;-80
2023/09/23 10:11:56;;;;;;;3.40;1.70;;;;;;;14.70;100.00;101344.19;5034172;28;20478;-80
2023/09/23 10:14:24;;;;;;;3.15;1.48;;;;;;;14.78;100.00;101337.06;5043937;28;20044;-80
2023/09/23 10:16:52;;;;;;;1.80;1.70;;;;;;;14.89;100.00;101348.97;5034780;28;20079;-80
2023/09/23 10:19:41;;;;;;;2.05;1.70;;;;;;;14.96;100.00;101345.31;5035161;28;20049;-80
2023/09/23 10:22:09;;;;;;;6.30;2.28;;;;;;;15.05;100.00;101345.06;5042444;28;20048;-79
2023/09/23 10:24:35;;;;;;;2.47;2.00;;;;;;;15.19;100.00;101349.94;5053147;28;20045;-79
2023/09/23 10:27:09;;;;;;;2.43;1.93;;;;;;;15.33;100.00;101352.19;5053819;28;20507;-80
2023/09/23 10:29:47;;;;;;;2.15;1.83;;;;;;;15.41;100.00;101360.69;5054069;28;20374;-80
2023/09/23 10:32:14;;;;;;;2.38;1.80;;;;;;;15.42;99.37;101346.69;5052992;28;20075;-80
2023/09/23 10:34:55;;;;;;;1.80;1.70;;;;;;;15.46;99.95;101357.94;5053580;28;20035;-80
2023/09/23 10:37:34;;;;;;;3.97;2.30;;;;;;;15.53;99.14;101356.88;5053094;28;20079;-80
2023/09/23 10:40:09;;;;;;;6.05;2.10;;;;;;;15.56;99.10;101355.94;5053652;28;20028;-80
2023/09/23 10:42:35;;;;;;;2.25;2.05;;;;;;;15.68;99.91;101371.28;5053912;28;20100;-80
2023/09/23 10:45:01;;;;;;;4.70;2.50;;;;;;;15.68;95.98;101370.41;5051887;28;20568;-80
2023/09/23 10:47:27;;;;;;;6.27;2.50;;;;;;;15.67;97.60;101374.81;5053358;28;20446;-80
2023/09/23 10:49:53;;;;;;;2.58;2.35;;;;;;;15.68;98.55;101381.75;5051948;28;20066;-79
2023/09/23 10:52:19;;;;;;;2.30;2.10;;;;;;;15.73;99.13;101377.22;5052322;28;20100;-80
2023/09/23 10:54:47;;;;;;;;;;;;;;;15.83;98.37;101385.69;5053963;28;20029;-80
2023/09/23 10:57:12;;;;;;;3.85;2.58;;;;;;;15.84;96.88;101386.53;5053079;28;20348;-80
2023/09/23 10:59:38;;;;;;;5.20;2.77;;;;;;;15.84;94.73;101392.66;5264354;22;20072;-79
2023/09/23 11:02:05;;;;;;;2.83;2.40;;;;;;;15.83;95.67;101388.31;5053131;28;20029;-80
2023/09/23 11:04:30;;;;;;;5.22;2.70;;;;;;;15.84;95.41;101397.91;5053352;28;20025;-80
2023/09/23 11:06:56;;;;;;;2.50;2.30;;;;;;;15.80;96.36;101401.47;5052503;28;20117;-80
2023/09/23 11:09:22;;;;;;;2.30;2.10;;;;;;;15.77;97.05;101403.31;5053150;28;20023;-80
2023/09/23 11:11:48;;;;;;;2.00;1.90;;;;;;;15.74;97.38;101406.88;5052960;28;20086;-80
2023/09/23 11:14:13;;;;;;;3.70;2.50;;;;;;;15.70;96.14;101407.88;5052405;28;20473;-80
2023/09/23 11:16:45;;;;;;;3.80;2.20;;;;;;;15.70;96.46;101408.75;5052966;28;20025;-80
2023/09/23 11:19:11;;;;;;;3.08;2.20;;;;;;;15.80;97.36;101408.47;5050992;28;20025;-80
2023/09/23 11:21:46;;;;;;;2.70;2.50;;;;;;;15.97;95.82;101411.50;5033177;28;20034;-81
2023/09/23 11:24:12;;;;;;;2.22;2.13;;;;;;;16.15;96.31;101420.56;5032696;28;20037;-80
2023/09/23 11:26:39;;;;;;;4.88;3.60;;;;;;;16.14;93.31;101418.84;5047213;22;20052;-80
2023/09/23 11:29:05;;;;;;;3.90;2.90;;;;;;;16.29;95.30;101420.16;5072452;28;20461;-80
2023/09/23 11:31:31;;;;;;;3.45;2.83;;;;;;;16.46;93.28;101421.41;5073043;28;20082;-80
2023/09/23 11:33:56;;;;;;;5.15;3.08;;;;;;;16.59;93.42;101427.13;5072061;28;20059;-80
2023/09/23 11:36:22;;;;;;;4.43;2.87;;;;;;;16.62;92.38;101433.13;5072609;28;20067;-81
2023/09/23 11:38:47;;;;;;;4.53;3.17;;;;;;;16.69;91.76;101436.41;5072574;28;20108;-79
2023/09/23 11:41:19;;;;;;;10.30;3.53;;;;;;;16.94;91.31;101433.03;5071410;28;20098;-80
2023/09/23 11:44:21;;;;;;;4.45;3.03;;;;;;;17.10;89.19;101442.13;5071317;28;20085;-80
2023/09/23 11:57:30;;;;;;;3.50;2.70;;;;;;;17.75;85.23;101463.53;4965893;28;20034;-80